sensor_id;sensor_type;location;lat;lon;timestamp;P1;durP1;ratioP1;P2;durP2;ratioP2
47896;SDS011;39629;51.400;5.494;2024-03-06T00:03:00;15.77;;;7.23;;
47896;SDS011;39629;51.400;5.494;2024-03-06T00:08:03;12.68;;;6.90;;
47896;SDS011;39629;51.400;5.494;2024-03-06T00:13:05;14.83;;;7.47;;
47896;SDS011;39629;51.400;5.494;2024-03-06T00:18:07;15.80;;;7.32;;
47896;SDS011;39629;51.400;5.494;2024-03-06T00:23:09;14.68;;;7.05;;
47896;SDS011;39629;51.400;5.494;2024-03-06T00:28:11;9.90;;;5.05;;
47896;SDS011;39629;51.400;5.494;2024-03-06T00:33:15;7.70;;;4.20;;
47896;SDS011;39629;51.400;5.494;2024-03-06T00:43:20;9.75;;;5.13;;
47896;SDS011;39629;51.400;5.494;2024-03-06T00:48:22;8.70;;;5.03;;
47896;SDS011;39629;51.400;5.494;2024-03-06T00:53:25;8.93;;;5.07;;
47896;SDS011;39629;51.400;5.494;2024-03-06T00:58:26;11.40;;;5.47;;
47896;SDS011;39629;51.400;5.494;2024-03-06T01:03:28;12.35;;;6.88;;
47896;SDS011;39629;51.400;5.494;2024-03-06T01:08:31;12.55;;;6.45;;
47896;SDS011;39629;51.400;5.494;2024-03-06T01:13:33;14.32;;;6.72;;
47896;SDS011;39629;51.400;5.494;2024-03-06T01:18:35;15.90;;;6.00;;
47896;SDS011;39629;51.400;5.494;2024-03-06T01:23:39;9.88;;;5.53;;
47896;SDS011;39629;51.400;5.494;2024-03-06T01:28:40;10.88;;;5.70;;
47896;SDS011;39629;51.400;5.494;2024-03-06T01:33:42;10.77;;;5.97;;
47896;SDS011;39629;51.400;5.494;2024-03-06T01:38:45;11.02;;;5.68;;
47896;SDS011;39629;51.400;5.494;2024-03-06T01:43:47;11.15;;;5.63;;
47896;SDS011;39629;51.400;5.494;2024-03-06T01:48:48;10.57;;;5.35;;
47896;SDS011;39629;51.400;5.494;2024-03-06T01:53:51;11.57;;;6.38;;
47896;SDS011;39629;51.400;5.494;2024-03-06T01:58:53;11.68;;;5.75;;
47896;SDS011;39629;51.400;5.494;2024-03-06T02:03:55;10.93;;;5.45;;
47896;SDS011;39629;51.400;5.494;2024-03-06T02:09:00;12.02;;;6.15;;
47896;SDS011;39629;51.400;5.494;2024-03-06T02:14:03;16.73;;;7.20;;
47896;SDS011;39629;51.400;5.494;2024-03-06T02:19:07;13.00;;;6.97;;
47896;SDS011;39629;51.400;5.494;2024-03-06T02:24:10;10.43;;;5.90;;
47896;SDS011;39629;51.400;5.494;2024-03-06T02:29:13;10.88;;;5.95;;
47896;SDS011;39629;51.400;5.494;2024-03-06T02:34:15;12.50;;;6.35;;
47896;SDS011;39629;51.400;5.494;2024-03-06T02:39:18;12.15;;;5.95;;
47896;SDS011;39629;51.400;5.494;2024-03-06T02:49:22;12.05;;;6.50;;
47896;SDS011;39629;51.400;5.494;2024-03-06T02:54:25;10.48;;;5.35;;
47896;SDS011;39629;51.400;5.494;2024-03-06T02:59:27;14.55;;;6.53;;
47896;SDS011;39629;51.400;5.494;2024-03-06T03:04:29;11.52;;;5.97;;
47896;SDS011;39629;51.400;5.494;2024-03-06T03:09:32;12.23;;;6.78;;
47896;SDS011;39629;51.400;5.494;2024-03-06T03:14:36;12.18;;;6.40;;
47896;SDS011;39629;51.400;5.494;2024-03-06T03:19:38;13.20;;;6.80;;
47896;SDS011;39629;51.400;5.494;2024-03-06T03:24:42;14.20;;;6.57;;
47896;SDS011;39629;51.400;5.494;2024-03-06T03:29:44;12.52;;;6.30;;
47896;SDS011;39629;51.400;5.494;2024-03-06T03:34:45;11.50;;;6.07;;
47896;SDS011;39629;51.400;5.494;2024-03-06T03:39:48;11.13;;;6.22;;
47896;SDS011;39629;51.400;5.494;2024-03-06T03:44:50;10.10;;;5.68;;
47896;SDS011;39629;51.400;5.494;2024-03-06T03:49:52;11.65;;;5.88;;
47896;SDS011;39629;51.400;5.494;2024-03-06T03:54:55;11.13;;;5.82;;
47896;SDS011;39629;51.400;5.494;2024-03-06T03:59:56;9.90;;;5.57;;
47896;SDS011;39629;51.400;5.494;2024-03-06T04:04:58;11.88;;;5.60;;
47896;SDS011;39629;51.400;5.494;2024-03-06T04:10:01;11.85;;;6.20;;
47896;SDS011;39629;51.400;5.494;2024-03-06T04:15:03;11.13;;;5.72;;
47896;SDS011;39629;51.400;5.494;2024-03-06T04:20:06;12.40;;;5.90;;
47896;SDS011;39629;51.400;5.494;2024-03-06T04:25:09;11.70;;;6.43;;
47896;SDS011;39629;51.400;5.494;2024-03-06T04:30:11;13.65;;;6.18;;
47896;SDS011;39629;51.400;5.494;2024-03-06T04:35:13;11.32;;;6.40;;
47896;SDS011;39629;51.400;5.494;2024-03-06T04:40:17;11.32;;;5.57;;
47896;SDS011;39629;51.400;5.494;2024-03-06T04:45:22;11.15;;;5.10;;
47896;SDS011;39629;51.400;5.494;2024-03-06T04:50:24;10.57;;;5.50;;
47896;SDS011;39629;51.400;5.494;2024-03-06T04:55:28;12.77;;;6.60;;
47896;SDS011;39629;51.400;5.494;2024-03-06T05:00:31;12.20;;;5.45;;
47896;SDS011;39629;51.400;5.494;2024-03-06T05:05:32;8.48;;;5.10;;
47896;SDS011;39629;51.400;5.494;2024-03-06T05:10:35;11.50;;;5.82;;
47896;SDS011;39629;51.400;5.494;2024-03-06T05:15:37;10.23;;;5.85;;
47896;SDS011;39629;51.400;5.494;2024-03-06T05:20:39;12.30;;;6.25;;
47896;SDS011;39629;51.400;5.494;2024-03-06T05:25:42;10.63;;;5.82;;
47896;SDS011;39629;51.400;5.494;2024-03-06T05:30:43;11.20;;;5.75;;
47896;SDS011;39629;51.400;5.494;2024-03-06T05:35:45;12.15;;;5.53;;
47896;SDS011;39629;51.400;5.494;2024-03-06T05:40:48;10.55;;;5.28;;
47896;SDS011;39629;51.400;5.494;2024-03-06T05:45:49;11.98;;;5.47;;
47896;SDS011;39629;51.400;5.494;2024-03-06T05:50:51;10.38;;;5.35;;
47896;SDS011;39629;51.400;5.494;2024-03-06T05:55:54;13.48;;;6.00;;
47896;SDS011;39629;51.400;5.494;2024-03-06T06:00:56;11.25;;;5.80;;
47896;SDS011;39629;51.400;5.494;2024-03-06T06:05:58;12.23;;;5.40;;
47896;SDS011;39629;51.400;5.494;2024-03-06T06:11:01;10.25;;;5.68;;
47896;SDS011;39629;51.400;5.494;2024-03-06T06:16:03;8.53;;;4.87;;
47896;SDS011;39629;51.400;5.494;2024-03-06T06:21:05;11.13;;;5.93;;
47896;SDS011;39629;51.400;5.494;2024-03-06T06:26:09;10.90;;;5.72;;
47896;SDS011;39629;51.400;5.494;2024-03-06T06:31:11;10.40;;;5.70;;
47896;SDS011;39629;51.400;5.494;2024-03-06T06:36:13;11.32;;;5.68;;
47896;SDS011;39629;51.400;5.494;2024-03-06T06:41:17;11.57;;;5.40;;
47896;SDS011;39629;51.400;5.494;2024-03-06T06:46:19;11.80;;;6.07;;
47896;SDS011;39629;51.400;5.494;2024-03-06T06:51:21;11.07;;;5.93;;
47896;SDS011;39629;51.400;5.494;2024-03-06T06:56:25;12.75;;;6.35;;
47896;SDS011;39629;51.400;5.494;2024-03-06T07:01:26;12.85;;;6.30;;
47896;SDS011;39629;51.400;5.494;2024-03-06T07:06:28;10.30;;;5.82;;
47896;SDS011;39629;51.400;5.494;2024-03-06T07:11:31;12.63;;;6.43;;
47896;SDS011;39629;51.400;5.494;2024-03-06T07:16:33;15.20;;;6.88;;
47896;SDS011;39629;51.400;5.494;2024-03-06T07:21:35;14.38;;;7.40;;
47896;SDS011;39629;51.400;5.494;2024-03-06T07:26:39;16.30;;;8.10;;
47896;SDS011;39629;51.400;5.494;2024-03-06T07:31:40;16.17;;;7.82;;
47896;SDS011;39629;51.400;5.494;2024-03-06T07:36:42;17.92;;;8.30;;
47896;SDS011;39629;51.400;5.494;2024-03-06T07:41:46;18.85;;;8.57;;
47896;SDS011;39629;51.400;5.494;2024-03-06T07:46:48;16.95;;;8.80;;
47896;SDS011;39629;51.400;5.494;2024-03-06T07:51:49;18.98;;;8.95;;
47896;SDS011;39629;51.400;5.494;2024-03-06T07:56:53;24.92;;;10.93;;
47896;SDS011;39629;51.400;5.494;2024-03-06T08:01:54;24.75;;;11.55;;
47896;SDS011;39629;51.400;5.494;2024-03-06T08:06:57;25.17;;;12.70;;
47896;SDS011;39629;51.400;5.494;2024-03-06T08:12:00;27.48;;;12.27;;
47896;SDS011;39629;51.400;5.494;2024-03-06T08:17:02;22.27;;;10.65;;
47896;SDS011;39629;51.400;5.494;2024-03-06T08:22:04;19.77;;;9.77;;
47896;SDS011;39629;51.400;5.494;2024-03-06T08:27:07;15.27;;;7.70;;
47896;SDS011;39629;51.400;5.494;2024-03-06T08:32:09;13.70;;;7.03;;
47896;SDS011;39629;51.400;5.494;2024-03-06T08:37:10;13.20;;;6.93;;
47896;SDS011;39629;51.400;5.494;2024-03-06T08:42:14;11.25;;;6.53;;
47896;SDS011;39629;51.400;5.494;2024-03-06T08:47:18;14.10;;;6.20;;
47896;SDS011;39629;51.400;5.494;2024-03-06T08:52:20;12.95;;;6.13;;
47896;SDS011;39629;51.400;5.494;2024-03-06T08:57:23;10.50;;;5.47;;
47896;SDS011;39629;51.400;5.494;2024-03-06T09:02:28;9.73;;;5.28;;
47896;SDS011;39629;51.400;5.494;2024-03-06T09:07:29;9.43;;;5.10;;
47896;SDS011;39629;51.400;5.494;2024-03-06T09:12:33;8.20;;;4.90;;
47896;SDS011;39629;51.400;5.494;2024-03-06T09:17:35;9.10;;;4.90;;
47896;SDS011;39629;51.400;5.494;2024-03-06T09:22:36;11.40;;;4.70;;
47896;SDS011;39629;51.400;5.494;2024-03-06T09:27:40;10.88;;;5.18;;
47896;SDS011;39629;51.400;5.494;2024-03-06T09:32:43;7.45;;;4.15;;
47896;SDS011;39629;51.400;5.494;2024-03-06T09:37:45;8.57;;;4.50;;
47896;SDS011;39629;51.400;5.494;2024-03-06T09:42:49;4.75;;;2.97;;
47896;SDS011;39629;51.400;5.494;2024-03-06T09:47:51;7.05;;;3.42;;
47896;SDS011;39629;51.400;5.494;2024-03-06T09:52:54;5.28;;;3.03;;
47896;SDS011;39629;51.400;5.494;2024-03-06T09:57:59;7.20;;;3.13;;
47896;SDS011;39629;51.400;5.494;2024-03-06T10:03:03;6.07;;;2.88;;
47896;SDS011;39629;51.400;5.494;2024-03-06T10:08:09;6.60;;;2.90;;
47896;SDS011;39629;51.400;5.494;2024-03-06T10:13:13;6.57;;;3.63;;
47896;SDS011;39629;51.400;5.494;2024-03-06T10:18:18;6.03;;;3.50;;
47896;SDS011;39629;51.400;5.494;2024-03-06T10:23:21;7.85;;;3.40;;
47896;SDS011;39629;51.400;5.494;2024-03-06T10:28:25;7.72;;;3.60;;
47896;SDS011;39629;51.400;5.494;2024-03-06T10:33:28;4.97;;;2.85;;
47896;SDS011;39629;51.400;5.494;2024-03-06T10:38:32;6.13;;;3.13;;
47896;SDS011;39629;51.400;5.494;2024-03-06T10:43:39;6.40;;;3.10;;
47896;SDS011;39629;51.400;5.494;2024-03-06T10:48:43;5.47;;;3.08;;
47896;SDS011;39629;51.400;5.494;2024-03-06T10:53:47;4.73;;;2.80;;
47896;SDS011;39629;51.400;5.494;2024-03-06T10:58:52;5.93;;;2.80;;
47896;SDS011;39629;51.400;5.494;2024-03-06T11:03:59;4.53;;;2.10;;
47896;SDS011;39629;51.400;5.494;2024-03-06T11:09:02;3.97;;;1.60;;
47896;SDS011;39629;51.400;5.494;2024-03-06T11:14:07;3.00;;;1.70;;
47896;SDS011;39629;51.400;5.494;2024-03-06T11:19:11;2.88;;;1.50;;
47896;SDS011;39629;51.400;5.494;2024-03-06T11:24:17;3.22;;;1.48;;
47896;SDS011;39629;51.400;5.494;2024-03-06T11:29:22;3.97;;;1.70;;
47896;SDS011;39629;51.400;5.494;2024-03-06T11:34:27;3.13;;;1.77;;
47896;SDS011;39629;51.400;5.494;2024-03-06T11:39:33;3.20;;;1.70;;
47896;SDS011;39629;51.400;5.494;2024-03-06T11:44:46;3.33;;;1.80;;
47896;SDS011;39629;51.400;5.494;2024-03-06T11:49:56;3.33;;;2.10;;
47896;SDS011;39629;51.400;5.494;2024-03-06T12:00:04;2.83;;;1.75;;
47896;SDS011;39629;51.400;5.494;2024-03-06T12:05:08;4.30;;;2.10;;
47896;SDS011;39629;51.400;5.494;2024-03-06T12:15:15;2.85;;;2.08;;
47896;SDS011;39629;51.400;5.494;2024-03-06T12:20:19;3.47;;;2.17;;
47896;SDS011;39629;51.400;5.494;2024-03-06T12:25:21;2.50;;;1.45;;
47896;SDS011;39629;51.400;5.494;2024-03-06T12:30:26;4.97;;;2.20;;
47896;SDS011;39629;51.400;5.494;2024-03-06T12:35:28;3.17;;;2.00;;
47896;SDS011;39629;51.400;5.494;2024-03-06T12:40:30;3.17;;;1.88;;
47896;SDS011;39629;51.400;5.494;2024-03-06T12:45:33;3.95;;;1.95;;
47896;SDS011;39629;51.400;5.494;2024-03-06T12:50:37;5.18;;;2.20;;
47896;SDS011;39629;51.400;5.494;2024-03-06T12:55:39;3.63;;;2.00;;
47896;SDS011;39629;51.400;5.494;2024-03-06T13:00:45;4.07;;;2.20;;
47896;SDS011;39629;51.400;5.494;2024-03-06T13:05:47;3.28;;;2.03;;
47896;SDS011;39629;51.400;5.494;2024-03-06T13:10:48;3.50;;;2.25;;
47896;SDS011;39629;51.400;5.494;2024-03-06T13:15:52;3.35;;;1.98;;
47896;SDS011;39629;51.400;5.494;2024-03-06T13:20:54;2.70;;;1.77;;
47896;SDS011;39629;51.400;5.494;2024-03-06T13:25:58;3.67;;;2.20;;
47896;SDS011;39629;51.400;5.494;2024-03-06T13:31:02;3.00;;;2.05;;
47896;SDS011;39629;51.400;5.494;2024-03-06T13:36:07;2.95;;;1.80;;
47896;SDS011;39629;51.400;5.494;2024-03-06T13:41:09;4.20;;;2.47;;
47896;SDS011;39629;51.400;5.494;2024-03-06T13:46:12;4.75;;;2.20;;
47896;SDS011;39629;51.400;5.494;2024-03-06T13:51:14;3.53;;;2.10;;
47896;SDS011;39629;51.400;5.494;2024-03-06T13:56:16;3.53;;;2.33;;
47896;SDS011;39629;51.400;5.494;2024-03-06T14:01:20;4.70;;;2.50;;
47896;SDS011;39629;51.400;5.494;2024-03-06T14:06:22;4.32;;;2.55;;
47896;SDS011;39629;51.400;5.494;2024-03-06T14:11:24;3.47;;;2.40;;
47896;SDS011;39629;51.400;5.494;2024-03-06T14:16:27;4.57;;;2.65;;
47896;SDS011;39629;51.400;5.494;2024-03-06T14:21:29;4.75;;;2.60;;
47896;SDS011;39629;51.400;5.494;2024-03-06T14:26:31;3.67;;;2.50;;
47896;SDS011;39629;51.400;5.494;2024-03-06T14:31:35;3.55;;;2.40;;
47896;SDS011;39629;51.400;5.494;2024-03-06T14:36:38;5.15;;;2.65;;
47896;SDS011;39629;51.400;5.494;2024-03-06T14:41:42;5.20;;;2.75;;
47896;SDS011;39629;51.400;5.494;2024-03-06T14:46:46;3.00;;;2.15;;
47896;SDS011;39629;51.400;5.494;2024-03-06T14:51:48;4.68;;;2.72;;
47896;SDS011;39629;51.400;5.494;2024-03-06T14:56:50;4.00;;;2.58;;
47896;SDS011;39629;51.400;5.494;2024-03-06T15:01:54;4.03;;;2.60;;
47896;SDS011;39629;51.400;5.494;2024-03-06T15:06:56;3.67;;;2.30;;
47896;SDS011;39629;51.400;5.494;2024-03-06T15:11:59;4.28;;;2.20;;
47896;SDS011;39629;51.400;5.494;2024-03-06T15:22:06;3.83;;;2.42;;
47896;SDS011;39629;51.400;5.494;2024-03-06T15:27:09;4.80;;;2.20;;
47896;SDS011;39629;51.400;5.494;2024-03-06T15:32:13;3.72;;;2.17;;
47896;SDS011;39629;51.400;5.494;2024-03-06T15:37:14;5.03;;;2.27;;
47896;SDS011;39629;51.400;5.494;2024-03-06T15:42:16;5.57;;;2.47;;
47896;SDS011;39629;51.400;5.494;2024-03-06T15:47:20;4.38;;;2.55;;
47896;SDS011;39629;51.400;5.494;2024-03-06T15:52:22;4.70;;;2.30;;
47896;SDS011;39629;51.400;5.494;2024-03-06T15:57:24;4.03;;;2.50;;
47896;SDS011;39629;51.400;5.494;2024-03-06T16:02:27;4.18;;;2.40;;
47896;SDS011;39629;51.400;5.494;2024-03-06T16:07:29;4.50;;;2.90;;
47896;SDS011;39629;51.400;5.494;2024-03-06T16:12:32;4.60;;;2.60;;
47896;SDS011;39629;51.400;5.494;2024-03-06T16:17:36;4.95;;;2.97;;
47896;SDS011;39629;51.400;5.494;2024-03-06T16:22:37;6.27;;;3.80;;
47896;SDS011;39629;51.400;5.494;2024-03-06T16:27:39;6.00;;;3.67;;
47896;SDS011;39629;51.400;5.494;2024-03-06T16:32:42;6.90;;;4.53;;
47896;SDS011;39629;51.400;5.494;2024-03-06T16:37:44;7.33;;;4.50;;
47896;SDS011;39629;51.400;5.494;2024-03-06T16:42:49;9.40;;;5.65;;
47896;SDS011;39629;51.400;5.494;2024-03-06T16:47:52;11.32;;;5.85;;
47896;SDS011;39629;51.400;5.494;2024-03-06T16:52:59;12.38;;;6.90;;
47896;SDS011;39629;51.400;5.494;2024-03-06T16:58:01;10.68;;;6.70;;
47896;SDS011;39629;51.400;5.494;2024-03-06T17:03:04;10.85;;;6.82;;
47896;SDS011;39629;51.400;5.494;2024-03-06T17:08:06;12.32;;;7.00;;
47896;SDS011;39629;51.400;5.494;2024-03-06T17:13:08;11.40;;;7.00;;
47896;SDS011;39629;51.400;5.494;2024-03-06T17:18:12;12.45;;;7.03;;
47896;SDS011;39629;51.400;5.494;2024-03-06T17:23:14;12.35;;;7.40;;
47896;SDS011;39629;51.400;5.494;2024-03-06T17:28:16;13.88;;;7.18;;
47896;SDS011;39629;51.400;5.494;2024-03-06T17:33:20;12.38;;;7.63;;
47896;SDS011;39629;51.400;5.494;2024-03-06T17:38:22;11.83;;;7.50;;
47896;SDS011;39629;51.400;5.494;2024-03-06T17:43:26;13.10;;;7.70;;
47896;SDS011;39629;51.400;5.494;2024-03-06T17:48:29;14.25;;;7.65;;
47896;SDS011;39629;51.400;5.494;2024-03-06T17:53:31;13.13;;;7.50;;
47896;SDS011;39629;51.400;5.494;2024-03-06T17:58:33;15.05;;;7.65;;
47896;SDS011;39629;51.400;5.494;2024-03-06T18:03:36;13.60;;;7.47;;
47896;SDS011;39629;51.400;5.494;2024-03-06T18:08:41;12.95;;;8.00;;
47896;SDS011;39629;51.400;5.494;2024-03-06T18:13:45;15.02;;;8.32;;
47896;SDS011;39629;51.400;5.494;2024-03-06T18:18:48;15.85;;;8.70;;
47896;SDS011;39629;51.400;5.494;2024-03-06T18:23:50;13.20;;;7.38;;
47896;SDS011;39629;51.400;5.494;2024-03-06T18:28:51;12.75;;;7.22;;
47896;SDS011;39629;51.400;5.494;2024-03-06T18:33:55;16.73;;;8.73;;
47896;SDS011;39629;51.400;5.494;2024-03-06T18:38:56;16.27;;;8.50;;
47896;SDS011;39629;51.400;5.494;2024-03-06T18:43:58;16.15;;;8.95;;
47896;SDS011;39629;51.400;5.494;2024-03-06T18:49:01;16.65;;;8.60;;
47896;SDS011;39629;51.400;5.494;2024-03-06T18:54:03;17.20;;;8.90;;
47896;SDS011;39629;51.400;5.494;2024-03-06T18:59:05;20.00;;;9.40;;
47896;SDS011;39629;51.400;5.494;2024-03-06T19:04:10;23.27;;;8.73;;
47896;SDS011;39629;51.400;5.494;2024-03-06T19:09:12;21.70;;;9.90;;
47896;SDS011;39629;51.400;5.494;2024-03-06T19:14:14;19.13;;;8.95;;
47896;SDS011;39629;51.400;5.494;2024-03-06T19:19:17;20.88;;;9.77;;
47896;SDS011;39629;51.400;5.494;2024-03-06T19:24:19;24.42;;;10.98;;
47896;SDS011;39629;51.400;5.494;2024-03-06T19:29:21;21.13;;;9.82;;
47896;SDS011;39629;51.400;5.494;2024-03-06T19:34:25;20.23;;;9.20;;
47896;SDS011;39629;51.400;5.494;2024-03-06T19:39:27;19.38;;;9.82;;
47896;SDS011;39629;51.400;5.494;2024-03-06T19:44:28;23.00;;;10.85;;
47896;SDS011;39629;51.400;5.494;2024-03-06T19:49:31;22.90;;;10.45;;
47896;SDS011;39629;51.400;5.494;2024-03-06T19:54:36;27.83;;;10.75;;
47896;SDS011;39629;51.400;5.494;2024-03-06T19:59:38;33.07;;;13.33;;
47896;SDS011;39629;51.400;5.494;2024-03-06T20:04:41;27.13;;;12.73;;
47896;SDS011;39629;51.400;5.494;2024-03-06T20:09:43;31.45;;;12.90;;
47896;SDS011;39629;51.400;5.494;2024-03-06T20:14:45;30.83;;;13.15;;
47896;SDS011;39629;51.400;5.494;2024-03-06T20:19:48;33.00;;;12.98;;
47896;SDS011;39629;51.400;5.494;2024-03-06T20:24:51;34.10;;;13.40;;
47896;SDS011;39629;51.400;5.494;2024-03-06T20:29:54;32.13;;;13.63;;
47896;SDS011;39629;51.400;5.494;2024-03-06T20:34:57;33.83;;;14.25;;
47896;SDS011;39629;51.400;5.494;2024-03-06T20:39:59;31.00;;;13.15;;
47896;SDS011;39629;51.400;5.494;2024-03-06T20:45:01;36.47;;;15.55;;
47896;SDS011;39629;51.400;5.494;2024-03-06T20:50:05;34.92;;;14.38;;
47896;SDS011;39629;51.400;5.494;2024-03-06T20:55:07;36.28;;;14.40;;
47896;SDS011;39629;51.400;5.494;2024-03-06T21:00:10;38.63;;;14.05;;
47896;SDS011;39629;51.400;5.494;2024-03-06T21:05:17;38.65;;;15.55;;
47896;SDS011;39629;51.400;5.494;2024-03-06T21:10:19;35.65;;;14.50;;
47896;SDS011;39629;51.400;5.494;2024-03-06T21:15:22;38.45;;;16.00;;
47896;SDS011;39629;51.400;5.494;2024-03-06T21:20:26;41.10;;;15.57;;
47896;SDS011;39629;51.400;5.494;2024-03-06T21:25:28;41.83;;;16.48;;
47896;SDS011;39629;51.400;5.494;2024-03-06T21:30:30;38.72;;;15.45;;
47896;SDS011;39629;51.400;5.494;2024-03-06T21:35:33;38.13;;;15.55;;
47896;SDS011;39629;51.400;5.494;2024-03-06T21:40:35;41.72;;;16.23;;
47896;SDS011;39629;51.400;5.494;2024-03-06T21:45:37;38.15;;;15.00;;
47896;SDS011;39629;51.400;5.494;2024-03-06T21:50:40;41.33;;;15.23;;
47896;SDS011;39629;51.400;5.494;2024-03-06T21:55:43;36.83;;;15.87;;
47896;SDS011;39629;51.400;5.494;2024-03-06T22:00:44;41.50;;;15.55;;
47896;SDS011;39629;51.400;5.494;2024-03-06T22:05:48;40.25;;;14.25;;
47896;SDS011;39629;51.400;5.494;2024-03-06T22:10:49;35.63;;;14.20;;
47896;SDS011;39629;51.400;5.494;2024-03-06T22:15:51;36.97;;;14.73;;
47896;SDS011;39629;51.400;5.494;2024-03-06T22:20:55;34.97;;;13.77;;
47896;SDS011;39629;51.400;5.494;2024-03-06T22:25:57;38.20;;;14.37;;
47896;SDS011;39629;51.400;5.494;2024-03-06T22:30:59;34.55;;;13.48;;
47896;SDS011;39629;51.400;5.494;2024-03-06T22:36:02;31.63;;;13.57;;
47896;SDS011;39629;51.400;5.494;2024-03-06T22:41:04;31.10;;;13.05;;
47896;SDS011;39629;51.400;5.494;2024-03-06T22:46:06;36.88;;;14.50;;
47896;SDS011;39629;51.400;5.494;2024-03-06T22:51:09;29.48;;;12.25;;
47896;SDS011;39629;51.400;5.494;2024-03-06T22:56:12;30.80;;;12.70;;
47896;SDS011;39629;51.400;5.494;2024-03-06T23:01:14;33.72;;;13.25;;
47896;SDS011;39629;51.400;5.494;2024-03-06T23:06:17;34.22;;;12.32;;
47896;SDS011;39629;51.400;5.494;2024-03-06T23:11:19;33.45;;;12.80;;
47896;SDS011;39629;51.400;5.494;2024-03-06T23:16:20;33.63;;;13.23;;
47896;SDS011;39629;51.400;5.494;2024-03-06T23:21:24;32.25;;;13.35;;
47896;SDS011;39629;51.400;5.494;2024-03-06T23:26:26;33.87;;;13.27;;
47896;SDS011;39629;51.400;5.494;2024-03-06T23:31:28;31.23;;;12.15;;
47896;SDS011;39629;51.400;5.494;2024-03-06T23:36:31;29.10;;;11.80;;
47896;SDS011;39629;51.400;5.494;2024-03-06T23:41:33;29.88;;;12.18;;
47896;SDS011;39629;51.400;5.494;2024-03-06T23:46:36;31.55;;;12.00;;
47896;SDS011;39629;51.400;5.494;2024-03-06T23:51:39;29.25;;;11.43;;
47896;SDS011;39629;51.400;5.494;2024-03-06T23:56:41;27.90;;;11.32;;
